Time;durP1;ratioP1;P1;durP2;ratioP2;P2;SDS_P1;SDS_P2;PMS_P1;PMS_P2;Temp;Humidity;BMP_temperature;BMP_pressure;BME280_temperature;BME280_humidity;BME280_pressure;Samples;Min_cycle;Max_cycle;Signal;HPM_P1;HPM_P2
2021/12/31 00:02:19;;;;;;;14.35;3.85;;;12.20;99.90;;;;;;4993623;28;20106;-70
2021/12/31 00:04:45;;;;;;;16.58;3.88;;;12.20;99.90;;;;;;4994080;28;20062;-70
2021/12/31 00:07:11;;;;;;;12.88;3.50;;;12.10;99.90;;;;;;5010205;28;20049;-70
2021/12/31 00:09:38;;;;;;;17.08;3.08;;;12.10;99.90;;;;;;5010421;28;20042;-70
2021/12/31 00:12:04;;;;;;;15.20;2.78;;;12.10;99.90;;;;;;4993734;28;20394;-71
2021/12/31 00:14:31;;;;;;;16.38;3.75;;;12.10;99.90;;;;;;4993610;28;20046;-71
2021/12/31 00:16:57;;;;;;;19.00;3.45;;;12.10;99.90;;;;;;4993512;28;20124;-70
2021/12/31 00:19:25;;;;;;;9.80;3.38;;;12.10;99.90;;;;;;4997959;28;20108;-72
2021/12/31 00:21:52;;;;;;;10.98;2.85;;;12.10;99.90;;;;;;4967627;28;20051;-71
2021/12/31 00:24:18;;;;;;;16.42;3.30;;;12.10;99.90;;;;;;4970346;28;20100;-71
2021/12/31 00:26:43;;;;;;;18.83;3.17;;;12.10;99.90;;;;;;4970264;28;20495;-70
2021/12/31 00:29:09;;;;;;;12.75;3.22;;;12.10;99.90;;;;;;4953738;28;20050;-70
2021/12/31 00:31:35;;;;;;;18.85;3.25;;;12.10;99.90;;;;;;4969820;28;20057;-70
2021/12/31 00:34:01;;;;;;;21.92;3.40;;;12.10;99.90;;;;;;4973654;28;20502;-70
2021/12/31 00:36:45;;;;;;;14.50;4.43;;;12.10;99.90;;;;;;4953592;28;20042;-70
2021/12/31 00:39:12;;;;;;;17.30;3.97;;;12.10;99.90;;;;;;4969675;28;20038;-71
2021/12/31 00:41:37;;;;;;;16.17;3.47;;;12.10;99.90;;;;;;4969874;28;20395;-71
2021/12/31 00:44:04;;;;;;;15.77;3.78;;;12.10;99.90;;;;;;4969537;28;20043;-71
2021/12/31 00:46:31;;;;;;;18.00;4.18;;;12.10;99.90;;;;;;4969551;28;20049;-70
2021/12/31 00:48:58;;;;;;;16.80;3.45;;;12.10;99.90;;;;;;4970459;28;20047;-70
2021/12/31 00:51:24;;;;;;;13.10;3.90;;;12.10;99.90;;;;;;4951771;28;20122;-70
2021/12/31 00:53:50;;;;;;;18.40;3.63;;;12.00;99.90;;;;;;4954554;28;20045;-69
2021/12/31 00:56:17;;;;;;;21.48;4.18;;;12.10;99.90;;;;;;4970317;28;20088;-70
2021/12/31 00:58:43;;;;;;;18.50;4.25;;;12.00;99.90;;;;;;4970438;28;20047;-70
2021/12/31 01:01:16;;;;;;;12.23;2.88;;;12.00;99.90;;;;;;4970489;28;20047;-70
2021/12/31 01:03:42;;;;;;;17.60;3.75;;;12.00;99.90;;;;;;4970680;28;20046;-70
2021/12/31 01:06:08;;;;;;;19.77;4.07;;;12.00;99.90;;;;;;4970204;28;20412;-70
2021/12/31 01:08:34;;;;;;;18.60;4.80;;;11.90;99.90;;;;;;4970003;28;20130;-70
2021/12/31 01:11:00;;;;;;;21.10;4.82;;;11.90;99.90;;;;;;4968771;28;20134;-70
2021/12/31 01:13:34;;;;;;;15.52;4.10;;;11.90;99.90;;;;;;4953782;28;20047;-70
2021/12/31 01:16:05;;;;;;;16.48;4.20;;;11.90;99.90;;;;;;4970338;28;20112;-70
2021/12/31 01:21:31;;;;;;;20.08;4.32;;;11.90;99.90;;;;;;4990601;28;20088;-70
2021/12/31 01:24:03;;;;;;;15.98;4.68;;;11.90;99.90;;;;;;4992678;28;20089;-70
2021/12/31 01:26:31;;;;;;;22.10;4.05;;;11.90;99.90;;;;;;4991930;28;20052;-70
2021/12/31 01:28:57;;;;;;;17.45;3.60;;;11.90;99.90;;;;;;4992582;28;20042;-70
2021/12/31 01:31:24;;;;;;;14.95;4.28;;;11.90;99.90;;;;;;4976437;28;20042;-70
2021/12/31 01:33:50;;;;;;;13.63;3.83;;;11.90;99.90;;;;;;4992357;28;20483;-70
2021/12/31 01:36:16;;;;;;;18.08;4.55;;;11.90;99.90;;;;;;4992531;28;20037;-70
2021/12/31 01:38:44;;;;;;;13.27;3.35;;;11.90;99.90;;;;;;4976041;28;20525;-70
2021/12/31 01:41:10;;;;;;;11.88;3.03;;;12.00;99.90;;;;;;5025315;28;20318;-71
2021/12/31 01:43:37;;;;;;;14.35;3.10;;;11.90;99.90;;;;;;5025131;28;20393;-70
2021/12/31 01:46:11;;;;;;;14.23;3.17;;;12.00;99.90;;;;;;5025084;28;20038;-70
2021/12/31 01:48:59;;;;;;;17.88;4.65;;;12.00;99.90;;;;;;5024819;28;20569;-70
2021/12/31 01:51:25;;;;;;;13.55;3.35;;;12.00;99.90;;;;;;4989920;28;20075;-70
2021/12/31 01:53:51;;;;;;;12.82;3.15;;;12.00;99.90;;;;;;4992161;28;20397;-70
2021/12/31 01:56:22;;;;;;;7.15;2.58;;;12.10;99.90;;;;;;5009748;28;20046;-70
2021/12/31 01:58:53;;;;;;;6.88;2.38;;;12.10;99.90;;;;;;5024601;28;20117;-70
2021/12/31 02:01:21;;;;;;;12.35;2.75;;;12.20;99.90;;;;;;5024920;28;20038;-70
2021/12/31 02:03:47;;;;;;;12.98;2.80;;;12.20;99.90;;;;;;4992158;28;20042;-70
2021/12/31 02:06:12;;;;;;;12.65;2.72;;;12.20;99.90;;;;;;4992001;28;20591;-70
2021/12/31 02:08:38;;;;;;;12.10;3.13;;;12.20;99.90;;;;;;4991722;28;20048;-70
2021/12/31 02:11:04;;;;;;;7.97;3.25;;;12.30;99.90;;;;;;4991990;28;20042;-69
2021/12/31 02:13:30;;;;;;;10.32;3.38;;;12.30;99.90;;;;;;4991652;28;20045;-70
2021/12/31 02:15:56;;;;;;;12.05;2.78;;;12.40;99.90;;;;;;4991627;28;20081;-70
2021/12/31 02:18:22;;;;;;;10.13;2.85;;;12.40;99.90;;;;;;4991644;28;20038;-70
2021/12/31 02:20:48;;;;;;;10.18;2.55;;;12.40;99.90;;;;;;5005646;28;20255;-71
2021/12/31 02:23:15;;;;;;;8.80;2.80;;;12.50;99.90;;;;;;5023865;28;20054;-70
2021/12/31 02:25:41;;;;;;;10.95;2.50;;;12.50;99.90;;;;;;5024535;28;20046;-70
2021/12/31 02:28:07;;;;;;;9.93;2.60;;;12.50;99.90;;;;;;5007890;28;20045;-69
2021/12/31 02:30:33;;;;;;;9.73;2.88;;;12.50;99.90;;;;;;5008123;28;20133;-70
2021/12/31 02:32:59;;;;;;;9.48;2.65;;;12.60;99.90;;;;;;4984451;28;20042;-70
2021/12/31 02:35:26;;;;;;;12.25;2.50;;;12.60;99.90;;;;;;4956102;28;20088;-70
2021/12/31 02:37:52;;;;;;;10.23;2.90;;;12.60;99.90;;;;;;5004405;28;20068;-71
2021/12/31 02:40:19;;;;;;;9.55;3.28;;;12.60;99.90;;;;;;4988476;28;20038;-70
2021/12/31 02:42:45;;;;;;;8.10;2.53;;;12.60;99.90;;;;;;4972218;28;20038;-70
2021/12/31 02:45:12;;;;;;;8.57;3.33;;;12.60;99.90;;;;;;5004379;28;20064;-70
2021/12/31 02:47:45;;;;;;;7.10;2.22;;;12.60;99.90;;;;;;4988402;28;20395;-70
2021/12/31 02:50:14;;;;;;;13.07;2.78;;;12.60;99.90;;;;;;5004464;28;20051;-70
2021/12/31 02:52:41;;;;;;;12.95;2.88;;;12.50;99.90;;;;;;5002069;28;20498;-70
2021/12/31 02:55:08;;;;;;;10.88;2.97;;;12.50;99.90;;;;;;5004359;28;20045;-69
2021/12/31 02:57:34;;;;;;;7.55;2.80;;;12.50;99.90;;;;;;5004577;28;20042;-70
2021/12/31 03:00:00;;;;;;;8.80;3.22;;;12.50;99.90;;;;;;4971695;28;20494;-70
2021/12/31 03:02:27;;;;;;;6.20;2.40;;;12.50;99.90;;;;;;4972147;28;20047;-70
2021/12/31 03:04:53;;;;;;;6.15;2.50;;;12.40;99.90;;;;;;5004185;28;20100;-70
2021/12/31 03:07:21;;;;;;;7.10;2.50;;;12.40;99.90;;;;;;4972092;28;20129;-70
2021/12/31 03:09:48;;;;;;;8.90;2.50;;;12.40;99.90;;;;;;5004119;28;20038;-69
2021/12/31 03:12:15;;;;;;;8.40;2.85;;;12.40;99.90;;;;;;4971797;28;20100;-70
2021/12/31 03:14:47;;;;;;;7.88;2.38;;;12.40;99.90;;;;;;5004060;28;20608;-70
2021/12/31 03:17:14;;;;;;;7.15;2.58;;;12.40;99.90;;;;;;5004140;28;20502;-69
2021/12/31 03:19:42;;;;;;;8.38;2.67;;;12.40;99.90;;;;;;4971369;28;20062;-69
2021/12/31 03:22:08;;;;;;;10.60;2.83;;;12.40;99.90;;;;;;5001938;28;20406;-69
2021/12/31 03:24:34;;;;;;;7.20;2.33;;;12.40;99.90;;;;;;5003885;28;20046;-69
2021/12/31 03:27:00;;;;;;;8.30;2.10;;;12.40;99.90;;;;;;5003978;28;20061;-70
2021/12/31 03:29:26;;;;;;;7.68;2.47;;;12.40;99.90;;;;;;4971405;28;20045;-70
2021/12/31 03:31:52;;;;;;;14.77;3.90;;;12.40;99.90;;;;;;4971419;28;20133;-69
2021/12/31 03:34:18;;;;;;;7.07;2.75;;;12.40;99.90;;;;;;5022821;28;20052;-69
2021/12/31 03:36:45;;;;;;;7.40;2.35;;;12.40;99.90;;;;;;5010503;28;20041;-69
2021/12/31 03:39:11;;;;;;;12.55;2.90;;;12.40;99.90;;;;;;5026755;28;20042;-70
2021/12/31 03:41:37;;;;;;;9.57;2.60;;;12.40;99.90;;;;;;4994082;28;20094;-69
2021/12/31 03:44:05;;;;;;;13.30;3.63;;;12.50;99.90;;;;;;4993954;28;20038;-70
2021/12/31 03:46:30;;;;;;;8.95;2.45;;;12.50;99.90;;;;;;5027079;28;20053;-70
2021/12/31 03:48:56;;;;;;;7.15;2.72;;;12.50;99.90;;;;;;4994137;28;20397;-69
2021/12/31 03:51:22;;;;;;;8.57;2.38;;;12.60;99.90;;;;;;4991806;28;20494;-70
2021/12/31 03:53:48;;;;;;;6.60;2.75;;;12.60;99.90;;;;;;5010082;28;20045;-70
2021/12/31 03:56:14;;;;;;;7.43;2.50;;;12.60;99.90;;;;;;5026909;28;20053;-69
2021/12/31 03:58:40;;;;;;;7.22;2.53;;;12.60;99.90;;;;;;5026606;28;20452;-70
2021/12/31 04:01:06;;;;;;;6.95;2.50;;;12.60;99.90;;;;;;4977587;28;20046;-70
2021/12/31 04:03:32;;;;;;;9.10;2.40;;;12.60;99.90;;;;;;4993936;28;20129;-70
2021/12/31 04:05:58;;;;;;;6.45;2.45;;;12.60;99.90;;;;;;4993920;28;20046;-68
2021/12/31 04:08:24;;;;;;;5.97;2.22;;;12.60;99.90;;;;;;4994027;28;20072;-69
2021/12/31 04:10:49;;;;;;;8.48;2.10;;;12.60;99.90;;;;;;4993662;28;20478;-69
2021/12/31 04:13:15;;;;;;;9.68;2.83;;;12.60;99.90;;;;;;4993691;28;20077;-69
2021/12/31 04:15:41;;;;;;;8.10;2.05;;;12.60;99.90;;;;;;4993471;28;20050;-70
2021/12/31 04:18:07;;;;;;;5.30;2.50;;;12.60;99.90;;;;;;5026335;28;20038;-69
2021/12/31 04:23:01;;;;;;;6.28;2.40;;;12.60;99.90;;;;;;5025418;28;20068;-69
2021/12/31 04:25:27;;;;;;;6.10;2.30;;;12.60;99.90;;;;;;5026038;28;20124;-69
2021/12/31 04:27:53;;;;;;;7.03;2.40;;;12.60;99.90;;;;;;4993342;28;20120;-69
2021/12/31 04:30:19;;;;;;;8.95;2.60;;;12.50;99.90;;;;;;5026132;28;20041;-69
2021/12/31 04:32:45;;;;;;;7.13;2.67;;;12.50;99.90;;;;;;5020981;28;20046;-69
2021/12/31 04:35:12;;;;;;;7.03;2.97;;;12.50;99.90;;;;;;4958010;28;20038;-70
2021/12/31 04:37:40;;;;;;;9.63;3.00;;;12.40;99.90;;;;;;4973837;28;20098;-69
2021/12/31 04:40:11;;;;;;;6.07;2.78;;;12.40;99.90;;;;;;5006592;28;20124;-70
2021/12/31 04:42:40;;;;;;;5.45;3.33;;;12.40;99.90;;;;;;4974057;28;20089;-69
2021/12/31 04:45:08;;;;;;;6.78;3.85;;;12.40;99.90;;;;;;5005923;28;20517;-70
2021/12/31 04:47:34;;;;;;;7.35;3.15;;;12.40;99.90;;;;;;4973885;28;20089;-70
2021/12/31 04:50:00;;;;;;;9.20;3.80;;;12.50;99.90;;;;;;5006366;28;20401;-70
2021/12/31 04:52:26;;;;;;;9.85;3.28;;;12.50;99.90;;;;;;4987372;28;20502;-70
2021/12/31 04:54:51;;;;;;;8.35;3.47;;;12.60;99.90;;;;;;4973465;28;20093;-70
2021/12/31 04:57:20;;;;;;;7.25;3.35;;;12.60;99.90;;;;;;5006457;28;20043;-70
2021/12/31 04:59:45;;;;;;;13.05;4.38;;;12.60;99.90;;;;;;4973365;28;20050;-69
2021/12/31 05:02:11;;;;;;;9.30;3.63;;;12.60;99.90;;;;;;4973391;28;20069;-70
2021/12/31 05:04:37;;;;;;;7.28;3.28;;;12.60;99.90;;;;;;4973596;28;20057;-70
2021/12/31 05:07:03;;;;;;;6.13;2.92;;;12.70;99.90;;;;;;5005923;28;20062;-69
2021/12/31 05:09:29;;;;;;;7.22;3.40;;;12.70;99.90;;;;;;4973515;28;20074;-71
2021/12/31 05:11:54;;;;;;;5.78;3.33;;;12.80;99.90;;;;;;4957105;28;20155;-70
2021/12/31 05:14:21;;;;;;;10.45;3.53;;;12.80;99.90;;;;;;4989843;28;20068;-70
2021/12/31 05:16:47;;;;;;;6.80;2.75;;;12.80;99.90;;;;;;5005705;28;20046;-70
2021/12/31 05:19:13;;;;;;;7.03;3.13;;;12.80;99.90;;;;;;5005479;28;20054;-70
2021/12/31 05:21:39;;;;;;;6.15;2.70;;;12.80;99.90;;;;;;4954595;28;20050;-70
2021/12/31 05:24:05;;;;;;;6.20;2.88;;;12.80;99.90;;;;;;4989563;28;20042;-70
2021/12/31 05:26:31;;;;;;;5.07;2.42;;;12.80;99.90;;;;;;5005527;28;20509;-70
2021/12/31 05:28:56;;;;;;;6.03;3.10;;;12.80;99.90;;;;;;5005546;28;20034;-70
2021/12/31 05:31:22;;;;;;;5.50;3.13;;;12.70;99.90;;;;;;4989156;28;20053;-71
2021/12/31 05:33:48;;;;;;;5.55;2.70;;;12.70;99.90;;;;;;5018996;28;20042;-70
2021/12/31 05:36:14;;;;;;;6.38;3.30;;;12.70;99.90;;;;;;4992386;28;20059;-70
2021/12/31 05:38:40;;;;;;;6.22;2.72;;;12.60;99.90;;;;;;4992675;28;20414;-70
2021/12/31 05:41:06;;;;;;;7.00;2.95;;;12.60;99.90;;;;;;5008730;28;20045;-70
2021/12/31 05:43:32;;;;;;;4.93;2.45;;;12.50;99.90;;;;;;5008607;28;20132;-70
2021/12/31 05:45:58;;;;;;;8.18;3.33;;;12.60;99.90;;;;;;4992151;28;20490;-70
2021/12/31 05:48:24;;;;;;;7.63;3.05;;;12.50;99.90;;;;;;4992587;28;20042;-70
2021/12/31 05:50:50;;;;;;;6.35;2.38;;;12.50;99.90;;;;;;4989764;28;20056;-70
2021/12/31 05:53:16;;;;;;;5.78;2.80;;;12.50;99.90;;;;;;4992437;28;20045;-70
2021/12/31 05:55:43;;;;;;;3.95;2.40;;;12.50;99.90;;;;;;4992028;28;20046;-70
2021/12/31 05:58:09;;;;;;;6.40;2.63;;;12.60;99.90;;;;;;4991651;28;20038;-70
2021/12/31 06:00:35;;;;;;;4.47;2.58;;;12.50;99.90;;;;;;4991897;28;20188;-70
2021/12/31 06:03:00;;;;;;;3.85;2.35;;;12.50;99.90;;;;;;5024854;28;20050;-70
2021/12/31 06:05:27;;;;;;;5.82;2.55;;;12.50;99.90;;;;;;5008156;28;20049;-69
2021/12/31 06:07:57;;;;;;;8.43;2.28;;;12.50;99.90;;;;;;5024808;28;20120;-69
2021/12/31 06:10:24;;;;;;;8.27;2.30;;;12.50;99.90;;;;;;4991863;28;20171;-70
2021/12/31 06:12:57;;;;;;;4.38;2.05;;;12.40;99.90;;;;;;4991929;28;20111;-69
2021/12/31 06:15:25;;;;;;;6.32;2.03;;;12.40;99.90;;;;;;4991796;28;20046;-69
2021/12/31 06:17:51;;;;;;;5.97;2.33;;;12.40;99.90;;;;;;4991825;28;20042;-70
2021/12/31 06:20:17;;;;;;;5.15;2.50;;;12.40;99.90;;;;;;4991733;28;20065;-70
2021/12/31 06:22:43;;;;;;;3.42;2.00;;;12.40;99.90;;;;;;4989726;28;20046;-69
2021/12/31 06:25:09;;;;;;;4.28;2.28;;;12.30;99.90;;;;;;4991623;28;20398;-69
2021/12/31 06:27:35;;;;;;;4.85;2.25;;;12.30;99.90;;;;;;5007984;28;20091;-70
2021/12/31 06:30:03;;;;;;;6.45;2.22;;;12.40;99.90;;;;;;4991743;28;20041;-70
2021/12/31 06:32:29;;;;;;;6.35;2.45;;;12.30;99.90;;;;;;4991663;28;20265;-69
2021/12/31 06:34:55;;;;;;;5.47;2.33;;;12.30;99.90;;;;;;4991636;28;20045;-70
2021/12/31 06:37:21;;;;;;;5.60;2.15;;;12.30;99.90;;;;;;4991476;28;20057;-70
2021/12/31 06:39:47;;;;;;;5.55;2.13;;;12.30;99.90;;;;;;4991597;28;20046;-70
2021/12/31 06:42:13;;;;;;;5.03;2.03;;;12.30;99.90;;;;;;4991719;28;20038;-70
2021/12/31 06:44:39;;;;;;;4.45;1.75;;;12.30;99.90;;;;;;4975412;28;20077;-69
2021/12/31 06:47:06;;;;;;;5.10;2.20;;;12.30;99.90;;;;;;4991383;28;20077;-70
2021/12/31 06:49:33;;;;;;;8.68;3.13;;;12.30;99.90;;;;;;4991761;28;20409;-69
2021/12/31 06:51:59;;;;;;;7.13;2.20;;;12.30;99.90;;;;;;4988856;28;20038;-69
2021/12/31 06:54:26;;;;;;;4.78;1.80;;;12.30;99.90;;;;;;4991686;28;20124;-70
2021/12/31 06:56:52;;;;;;;5.25;1.80;;;12.30;99.90;;;;;;4975201;28;20048;-69
2021/12/31 06:59:17;;;;;;;3.88;1.95;;;12.30;99.90;;;;;;4975192;28;20046;-69
2021/12/31 07:01:43;;;;;;;7.20;2.53;;;12.30;99.90;;;;;;4975160;28;20085;-69
2021/12/31 07:04:10;;;;;;;3.35;1.60;;;12.40;99.90;;;;;;4975122;28;20042;-69
2021/12/31 07:06:36;;;;;;;10.25;2.30;;;12.30;99.90;;;;;;4991214;28;20504;-69
2021/12/31 07:09:02;;;;;;;4.50;2.13;;;12.30;99.90;;;;;;4993834;28;20041;-69
2021/12/31 07:11:28;;;;;;;5.05;2.08;;;12.30;99.90;;;;;;4994554;28;20111;-70
2021/12/31 07:13:54;;;;;;;3.05;1.60;;;12.30;99.90;;;;;;4994522;28;20046;-69
2021/12/31 07:16:19;;;;;;;4.63;2.17;;;12.30;99.90;;;;;;4994532;28;20042;-69
2021/12/31 07:18:46;;;;;;;5.40;1.88;;;12.30;99.90;;;;;;4994579;28;20053;-69
2021/12/31 07:21:12;;;;;;;3.17;1.80;;;12.30;99.90;;;;;;4992068;28;20041;-69
2021/12/31 07:23:37;;;;;;;4.07;2.03;;;12.20;99.90;;;;;;4994421;28;20042;-69
2021/12/31 07:26:03;;;;;;;4.63;1.80;;;12.20;99.90;;;;;;4994546;28;20124;-68
2021/12/31 07:28:29;;;;;;;6.00;1.83;;;12.20;99.90;;;;;;4994679;28;20052;-67
2021/12/31 07:30:55;;;;;;;4.35;1.80;;;12.20;99.90;;;;;;4994474;28;20485;-68
2021/12/31 07:33:23;;;;;;;6.82;2.35;;;12.20;99.90;;;;;;4994155;28;20042;-67
2021/12/31 07:35:51;;;;;;;6.82;1.90;;;12.10;99.90;;;;;;4994433;28;20041;-68
2021/12/31 07:38:31;;;;;;;4.25;2.03;;;12.10;99.90;;;;;;5010102;28;20093;-68
2021/12/31 07:40:57;;;;;;;8.50;2.20;;;12.10;99.90;;;;;;4994073;28;20562;-67
2021/12/31 07:43:23;;;;;;;7.65;2.17;;;12.10;99.90;;;;;;5039330;28;20070;-70
2021/12/31 07:45:50;;;;;;;7.03;2.50;;;12.10;99.90;;;;;;5097162;28;20364;-69
2021/12/31 07:48:16;;;;;;;5.88;2.30;;;12.10;99.90;;;;;;5096806;28;20041;-69
2021/12/31 07:50:42;;;;;;;4.97;2.45;;;12.20;99.90;;;;;;5094360;28;20088;-69
2021/12/31 07:53:08;;;;;;;6.18;2.67;;;12.20;99.90;;;;;;5096666;28;20040;-70
2021/12/31 07:55:35;;;;;;;5.80;2.15;;;12.30;99.90;;;;;;5050535;28;20405;-69
2021/12/31 07:58:02;;;;;;;4.22;2.40;;;12.30;99.90;;;;;;4993791;28;20041;-69
2021/12/31 08:00:28;;;;;;;9.30;2.78;;;12.40;99.90;;;;;;4994170;28;20049;-70
2021/12/31 08:02:58;;;;;;;4.50;2.35;;;12.50;99.90;;;;;;4993749;28;20046;-70
2021/12/31 08:05:26;;;;;;;7.95;2.45;;;12.50;99.90;;;;;;4994112;28;20091;-69
2021/12/31 08:07:52;;;;;;;5.80;2.05;;;12.60;99.90;;;;;;4993953;28;20401;-69
2021/12/31 08:10:19;;;;;;;5.45;2.92;;;12.60;99.90;;;;;;4993705;28;20037;-69
2021/12/31 08:12:45;;;;;;;5.40;2.38;;;12.60;99.90;;;;;;4993561;28;20038;-69
2021/12/31 08:15:11;;;;;;;6.85;2.65;;;12.60;99.90;;;;;;4993694;28;20078;-69
2021/12/31 08:17:37;;;;;;;4.72;2.67;;;12.60;99.90;;;;;;4993575;28;20084;-68
2021/12/31 08:20:04;;;;;;;4.20;2.45;;;12.60;99.90;;;;;;4976641;28;20141;-67
2021/12/31 08:22:30;;;;;;;6.60;2.40;;;12.60;99.90;;;;;;4991175;28;20087;-68
2021/12/31 08:24:55;;;;;;;5.63;2.30;;;12.60;99.90;;;;;;4977608;28;20406;-68
2021/12/31 08:27:21;;;;;;;6.18;2.78;;;12.60;99.90;;;;;;4977095;28;20042;-68
2021/12/31 08:29:47;;;;;;;8.07;3.08;;;12.60;99.90;;;;;;4993705;28;20052;-68
2021/12/31 08:32:13;;;;;;;4.90;2.72;;;12.60;99.90;;;;;;4993357;28;20513;-68
2021/12/31 08:34:39;;;;;;;5.40;2.22;;;12.60;99.90;;;;;;5026243;28;20068;-68
2021/12/31 08:37:05;;;;;;;7.93;2.88;;;12.60;99.90;;;;;;5009539;28;20042;-68
2021/12/31 08:39:30;;;;;;;6.20;2.55;;;12.50;99.90;;;;;;4993600;28;20049;-67
2021/12/31 08:41:57;;;;;;;4.57;2.30;;;12.60;99.90;;;;;;4993286;28;20504;-67
2021/12/31 08:44:22;;;;;;;6.93;3.20;;;12.50;99.90;;;;;;5025977;28;20068;-68
2021/12/31 08:46:48;;;;;;;4.43;2.05;;;12.50;99.90;;;;;;5026003;28;20042;-69
2021/12/31 08:49:14;;;;;;;10.82;2.75;;;12.60;99.90;;;;;;4993086;28;20091;-68
2021/12/31 08:51:40;;;;;;;5.72;2.83;;;12.50;99.90;;;;;;4990983;28;20448;-68
2021/12/31 08:54:06;;;;;;;5.78;2.30;;;12.50;99.90;;;;;;4992958;28;20057;-68
2021/12/31 08:56:32;;;;;;;4.57;2.63;;;12.50;99.90;;;;;;4992978;28;20042;-68
2021/12/31 08:58:58;;;;;;;6.25;2.60;;;12.50;99.90;;;;;;5025690;28;20046;-68
2021/12/31 09:01:24;;;;;;;4.40;2.20;;;12.50;99.90;;;;;;4993119;28;20129;-68
2021/12/31 09:03:49;;;;;;;4.13;2.15;;;12.50;99.90;;;;;;4993114;28;20111;-67
2021/12/31 09:06:19;;;;;;;5.22;3.42;;;12.50;99.90;;;;;;4992994;28;20485;-68
2021/12/31 09:08:48;;;;;;;7.50;2.95;;;12.50;99.90;;;;;;5025902;28;20088;-67
2021/12/31 09:11:15;;;;;;;6.10;2.35;;;12.50;99.90;;;;;;5009046;28;20049;-68
2021/12/31 09:13:43;;;;;;;8.77;2.42;;;12.50;99.90;;;;;;4992662;28;20057;-67
2021/12/31 09:16:10;;;;;;;6.68;2.28;;;12.50;99.90;;;;;;4992789;28;20077;-68
2021/12/31 09:18:36;;;;;;;4.65;2.03;;;12.60;99.90;;;;;;4992902;28;20129;-68
2021/12/31 09:21:02;;;;;;;5.88;2.42;;;12.60;99.90;;;;;;4990185;28;20418;-68
2021/12/31 09:23:28;;;;;;;3.30;2.15;;;12.60;99.90;;;;;;5009088;28;20050;-67
2021/12/31 09:25:58;;;;;;;7.32;2.45;;;12.70;99.90;;;;;;4992808;28;20068;-68
2021/12/31 09:28:25;;;;;;;6.87;2.50;;;12.70;99.90;;;;;;4976751;28;20125;-68
2021/12/31 09:30:51;;;;;;;6.70;2.47;;;12.70;99.90;;;;;;4992184;28;20532;-68
2021/12/31 09:33:17;;;;;;;8.50;2.45;;;12.70;99.90;;;;;;5002009;28;20038;-68
2021/12/31 09:35:43;;;;;;;6.80;2.85;;;12.60;99.90;;;;;;4992915;28;20053;-67
2021/12/31 09:38:09;;;;;;;5.68;2.60;;;12.60;99.90;;;;;;4977061;28;20038;-68
2021/12/31 09:40:36;;;;;;;6.05;2.63;;;12.60;99.90;;;;;;4993392;28;20041;-67
2021/12/31 09:43:08;;;;;;;4.72;2.20;;;12.50;99.90;;;;;;4971966;28;20047;-67
2021/12/31 09:45:39;;;;;;;6.03;2.50;;;12.50;99.90;;;;;;5008707;28;20066;-67
2021/12/31 09:48:15;;;;;;;4.22;2.47;;;12.50;99.90;;;;;;4977016;28;20099;-68
2021/12/31 09:50:44;;;;;;;5.05;2.25;;;12.40;99.90;;;;;;4971858;28;20492;-67
2021/12/31 09:53:14;;;;;;;6.18;3.08;;;12.30;99.90;;;;;;5005923;28;20052;-67
2021/12/31 09:55:45;;;;;;;5.60;2.67;;;12.30;99.90;;;;;;4981383;28;20378;-68
2021/12/31 09:58:13;;;;;;;4.07;2.42;;;12.30;99.90;;;;;;4992772;28;20038;-67
2021/12/31 10:00:42;;;;;;;5.35;2.67;;;12.20;99.90;;;;;;4986815;28;20069;-67
2021/12/31 10:03:11;;;;;;;4.97;2.50;;;12.20;99.90;;;;;;5095017;28;20042;-67
2021/12/31 10:05:47;;;;;;;5.95;2.67;;;12.20;99.90;;;;;;5095177;28;20043;-68
2021/12/31 10:08:16;;;;;;;5.03;2.40;;;12.20;99.90;;;;;;5095297;28;20433;-67
2021/12/31 10:10:44;;;;;;;5.75;3.05;;;12.20;99.90;;;;;;5078162;28;20126;-67
2021/12/31 10:13:10;;;;;;;6.97;2.90;;;12.20;99.90;;;;;;5113074;28;20048;-67
2021/12/31 10:15:40;;;;;;;7.57;2.53;;;12.20;99.90;;;;;;5094998;28;20446;-67
2021/12/31 10:18:13;;;;;;;5.30;2.80;;;12.20;99.90;;;;;;5095716;28;20062;-67
2021/12/31 10:20:49;;;;;;;4.15;2.55;;;12.30;99.90;;;;;;5093732;28;20095;-67
2021/12/31 10:23:19;;;;;;;4.60;2.20;;;12.30;99.90;;;;;;5095063;28;20396;-67
2021/12/31 10:25:46;;;;;;;5.90;2.60;;;12.20;99.90;;;;;;5078016;28;20035;-67
2021/12/31 10:28:14;;;;;;;5.70;3.00;;;12.20;99.90;;;;;;5077958;28;20043;-67
2021/12/31 10:30:42;;;;;;;7.25;3.03;;;12.20;99.90;;;;;;5094949;28;20134;-67
2021/12/31 10:33:09;;;;;;;7.90;3.30;;;12.20;99.90;;;;;;5052360;28;20049;-67
2021/12/31 10:35:43;;;;;;;4.82;2.42;;;12.20;99.90;;;;;;4992413;28;20053;-67
2021/12/31 10:38:13;;;;;;;7.72;3.42;;;12.20;99.90;;;;;;5043806;28;20036;-68
2021/12/31 10:40:40;;;;;;;8.02;3.58;;;12.10;99.90;;;;;;5094889;28;20392;-68
2021/12/31 10:43:23;;;;;;;7.35;3.25;;;12.10;99.90;;;;;;5095932;28;20054;-67
2021/12/31 10:46:08;;;;;;;6.65;3.30;;;12.10;99.90;;;;;;5082095;28;20077;-67
2021/12/31 10:48:50;;;;;;;6.78;3.53;;;12.00;99.90;;;;;;5098959;28;20039;-68
2021/12/31 10:51:19;;;;;;;10.68;4.22;;;12.00;99.90;;;;;;5079891;28;20040;-68
2021/12/31 10:53:51;;;;;;;7.75;3.53;;;11.90;99.90;;;;;;5098623;28;20035;-68
2021/12/31 10:56:20;;;;;;;7.53;4.03;;;11.80;99.90;;;;;;5098724;28;20039;-68
2021/12/31 10:58:57;;;;;;;5.82;4.00;;;11.80;99.90;;;;;;5098597;28;20045;-68
2021/12/31 11:01:23;;;;;;;6.65;3.63;;;11.80;99.90;;;;;;5098465;28;20039;-68
2021/12/31 11:03:50;;;;;;;7.60;4.22;;;11.80;99.90;;;;;;5098596;28;20373;-68
2021/12/31 11:06:17;;;;;;;6.82;4.18;;;11.80;99.90;;;;;;5098480;28;20050;-68
2021/12/31 11:08:47;;;;;;;7.15;4.57;;;11.70;99.90;;;;;;5098274;28;20043;-68
2021/12/31 11:11:19;;;;;;;6.57;3.33;;;11.80;99.90;;;;;;5098503;28;20043;-68
2021/12/31 11:13:45;;;;;;;8.07;4.22;;;11.70;99.90;;;;;;5116450;28;20062;-68
2021/12/31 11:16:15;;;;;;;10.40;4.35;;;11.70;99.90;;;;;;5081399;28;20074;-68
2021/12/31 11:18:41;;;;;;;9.07;4.03;;;11.70;99.90;;;;;;5081556;28;20068;-68
2021/12/31 11:21:09;;;;;;;8.40;4.25;;;11.70;99.90;;;;;;5095863;28;20055;-68
2021/12/31 11:23:40;;;;;;;14.85;10.25;;;11.70;99.90;;;;;;5098136;28;20044;-68
2021/12/31 11:26:13;;;;;;;15.15;11.25;;;11.70;99.90;;;;;;5097977;28;20131;-68
2021/12/31 11:28:41;;;;;;;9.13;6.32;;;11.60;99.90;;;;;;5098270;28;20514;-69
2021/12/31 11:31:19;;;;;;;10.00;5.30;;;11.60;99.90;;;;;;5098246;28;20131;-68
2021/12/31 11:34:08;;;;;;;9.27;4.75;;;11.60;99.90;;;;;;5028938;28;20529;-69
2021/12/31 11:36:43;;;;;;;9.05;4.43;;;11.60;99.90;;;;;;4995277;28;20042;-68
2021/12/31 11:39:23;;;;;;;7.45;3.88;;;11.60;99.90;;;;;;5089039;28;20118;-68
2021/12/31 11:41:51;;;;;;;8.32;4.20;;;11.60;99.90;;;;;;5098024;28;20035;-68
2021/12/31 11:44:17;;;;;;;7.28;4.13;;;11.60;99.90;;;;;;5097665;28;20495;-68
2021/12/31 11:46:45;;;;;;;9.00;4.32;;;11.70;99.90;;;;;;5089316;28;20040;-67
2021/12/31 11:49:26;;;;;;;7.65;4.05;;;11.60;99.90;;;;;;4994597;28;20042;-68
2021/12/31 11:51:55;;;;;;;;;;;11.60;99.90;;;;;;4992904;28;20054;-69
2021/12/31 11:54:21;;;;;;;6.30;4.68;;;11.60;99.90;;;;;;4993848;28;19917;-69
2021/12/31 11:56:56;;;;;;;11.68;4.95;;;11.50;99.90;;;;;;4978366;28;20056;-68
2021/12/31 11:59:28;;;;;;;7.97;4.25;;;11.50;99.90;;;;;;4994899;28;20069;-68
2021/12/31 12:02:13;;;;;;;11.85;5.25;;;11.50;99.90;;;;;;4993006;28;20375;-68
2021/12/31 12:04:42;;;;;;;16.08;5.15;;;11.40;99.90;;;;;;5010721;28;20042;-69
2021/12/31 12:07:31;;;;;;;9.70;4.97;;;11.40;99.90;;;;;;5010826;28;20044;-69
2021/12/31 12:09:57;;;;;;;9.38;4.65;;;11.30;99.90;;;;;;5010894;28;20064;-68
2021/12/31 12:12:37;;;;;;;11.15;5.15;;;11.30;99.90;;;;;;5010764;28;20462;-69
2021/12/31 12:15:14;;;;;;;9.48;5.20;;;11.30;99.90;;;;;;5010898;28;20424;-70
2021/12/31 12:17:43;;;;;;;12.85;5.95;;;11.30;99.90;;;;;;5010703;28;20130;-70
2021/12/31 12:20:22;;;;;;;11.90;5.35;;;11.20;99.90;;;;;;5010373;28;20050;-70
2021/12/31 12:22:56;;;;;;;7.72;4.88;;;11.20;99.90;;;;;;5008349;28;20058;-70
2021/12/31 12:25:31;;;;;;;10.73;4.63;;;11.20;99.90;;;;;;5010508;28;20084;-70
2021/12/31 12:28:04;;;;;;;10.35;5.55;;;11.20;99.90;;;;;;4994228;28;20486;-69
2021/12/31 12:30:30;;;;;;;10.07;5.32;;;11.10;99.90;;;;;;4994004;28;20045;-70
2021/12/31 12:35:38;;;;;;;9.18;5.00;;;11.10;99.90;;;;;;4993942;28;20115;-69
2021/12/31 12:38:05;;;;;;;14.40;9.25;;;11.10;99.90;;;;;;5041766;28;20119;-69
2021/12/31 12:40:59;;;;;;;9.40;4.47;;;11.10;99.90;;;;;;5096835;28;20142;-69
2021/12/31 12:43:36;;;;;;;8.80;4.65;;;11.10;99.90;;;;;;5096575;28;20068;-71
2021/12/31 12:46:06;;;;;;;8.98;4.80;;;11.10;99.90;;;;;;5096555;28;20126;-71
2021/12/31 12:48:45;;;;;;;7.50;4.60;;;11.10;99.90;;;;;;5096513;28;20479;-71
2021/12/31 12:51:13;;;;;;;15.10;5.15;;;11.00;99.90;;;;;;5094525;28;20036;-72
2021/12/31 12:53:45;;;;;;;7.85;4.57;;;11.00;99.90;;;;;;5079637;28;20075;-72
2021/12/31 12:56:16;;;;;;;12.77;5.07;;;11.00;99.90;;;;;;5096373;28;20039;-70
2021/12/31 12:58:57;;;;;;;9.85;5.20;;;11.00;99.90;;;;;;5096626;28;20046;-70